createdAt,value
2022-09-26T00:01:26.657Z,93.34
2022-09-26T00:04:02.931Z,93.54
2022-09-26T00:06:30.089Z,93.95
2022-09-26T00:08:58.113Z,93.68
2022-09-26T00:11:31.380Z,93.46
2022-09-26T00:14:01.808Z,93.26
2022-09-26T00:16:29.081Z,93.56
2022-09-26T00:18:58.960Z,93.81
2022-09-26T00:21:27.308Z,93.88
2022-09-26T00:23:54.768Z,94.28
2022-09-26T00:26:23.350Z,94.13
2022-09-26T00:28:51.100Z,93.93
2022-09-26T00:31:22.221Z,93.70
2022-09-26T00:33:49.295Z,93.36
2022-09-26T00:36:16.664Z,92.92
2022-09-26T00:38:43.976Z,92.60
2022-09-26T00:41:11.460Z,92.66
2022-09-26T00:44:08.548Z,92.68
2022-09-26T00:46:47.297Z,92.70
2022-09-26T00:49:29.260Z,92.97
2022-09-26T00:52:02.263Z,92.93
2022-09-26T00:54:31.256Z,93.03
2022-09-26T00:57:07.275Z,92.78
2022-09-26T00:59:39.085Z,92.72
2022-09-26T01:02:06.951Z,92.75
2022-09-26T01:04:37.360Z,92.47
2022-09-26T01:07:08.548Z,92.25
2022-09-26T01:09:37.285Z,91.88
2022-09-26T01:12:05.895Z,91.72
2022-09-26T01:14:34.507Z,91.79
2022-09-26T01:17:02.633Z,91.67
2022-09-26T01:19:59.782Z,91.77
2022-09-26T01:22:32.661Z,91.94
2022-09-26T01:25:50.343Z,91.74
2022-09-26T01:28:35.880Z,91.57
2022-09-26T01:31:21.952Z,91.53
2022-09-26T01:34:05.296Z,91.57
2022-09-26T01:37:29.324Z,91.41
2022-09-26T01:40:22.158Z,91.76
2022-09-26T01:43:01.980Z,91.66
2022-09-26T01:45:52.172Z,92.05
2022-09-26T01:48:32.675Z,91.90
2022-09-26T01:51:05.156Z,92.11
2022-09-26T01:53:44.565Z,92.28
2022-09-26T01:56:16.493Z,92.07
2022-09-26T01:58:52.594Z,92.69
2022-09-26T02:01:22.260Z,92.85
2022-09-26T02:03:55.402Z,92.73
2022-09-26T02:06:32.329Z,92.68
2022-09-26T02:09:05.236Z,92.48
2022-09-26T02:11:32.726Z,92.67
2022-09-26T02:14:29.266Z,92.42
2022-09-26T02:17:02.797Z,92.36
2022-09-26T02:19:36.877Z,92.28
2022-09-26T02:22:04.123Z,92.25
2022-09-26T02:24:31.276Z,91.99
2022-09-26T02:26:58.422Z,92.02
2022-09-26T02:29:26.377Z,91.81
2022-09-26T02:32:03.148Z,91.57
2022-09-26T02:34:30.608Z,91.71
2022-09-26T02:36:59.425Z,91.43
2022-09-26T02:39:29.862Z,91.70
2022-09-26T02:42:15.910Z,91.47
2022-09-26T02:44:51.582Z,91.13
2022-09-26T02:47:21.719Z,91.35
2022-09-26T02:50:08.650Z,91.21
2022-09-26T02:52:58.701Z,91.43
2022-09-26T02:56:14.398Z,91.59
2022-09-26T02:58:59.991Z,91.46
2022-09-26T03:01:44.128Z,91.29
2022-09-26T03:04:23.614Z,91.27
2022-09-26T03:06:57.713Z,91.03
2022-09-26T03:09:26.158Z,91.21
2022-09-26T03:11:54.815Z,91.51
2022-09-26T03:14:21.762Z,91.36
2022-09-26T03:16:51.319Z,91.32
2022-09-26T03:19:29.761Z,91.32
2022-09-26T03:21:57.433Z,91.45
2022-09-26T03:24:25.692Z,91.13
2022-09-26T03:26:55.377Z,91.05
2022-09-26T03:29:23.120Z,91.21
2022-09-26T03:31:50.459Z,90.85
2022-09-26T03:34:19.225Z,90.71
2022-09-26T03:36:48.037Z,90.93
2022-09-26T03:39:15.172Z,90.67
2022-09-26T03:41:50.913Z,90.62
2022-09-26T03:44:26.353Z,90.15
2022-09-26T03:47:31.940Z,90.56
2022-09-26T03:49:58.706Z,90.06
2022-09-26T03:52:26.854Z,90.42
2022-09-26T03:54:54.378Z,90.50
2022-09-26T03:57:21.618Z,90.74
2022-09-26T03:59:55.241Z,91.00
2022-09-26T04:02:22.952Z,90.76
2022-09-26T04:05:01.105Z,90.97
2022-09-26T04:07:28.268Z,91.00
2022-09-26T04:09:55.156Z,91.13
2022-09-26T04:12:22.130Z,91.34
2022-09-26T04:14:49.089Z,91.42
2022-09-26T04:17:16.841Z,91.57
2022-09-26T04:19:45.978Z,91.66
2022-09-26T04:22:13.585Z,91.60
2022-09-26T04:24:41.684Z,91.55
2022-09-26T04:27:08.679Z,91.60
2022-09-26T04:29:36.542Z,91.59
2022-09-26T04:32:33.041Z,91.60
2022-09-26T04:35:18.505Z,91.82
2022-09-26T04:37:46.211Z,91.43
2022-09-26T04:40:13.942Z,91.62
2022-09-26T04:42:51.231Z,91.60
2022-09-26T04:45:18.445Z,91.68
2022-09-26T04:47:45.510Z,92.00
2022-09-26T04:50:26.269Z,92.10
2022-09-26T04:53:06.847Z,92.19
2022-09-26T04:55:37.932Z,91.93
2022-09-26T04:58:04.746Z,92.34
2022-09-26T05:00:32.347Z,92.87
2022-09-26T05:03:03.289Z,92.83
2022-09-26T05:05:31.322Z,93.19
2022-09-26T05:07:58.083Z,93.30
2022-09-26T05:10:25.275Z,93.09
2022-09-26T05:13:00.878Z,92.83
2022-09-26T05:15:28.206Z,92.25
2022-09-26T05:17:59.564Z,91.99
2022-09-26T05:20:31.894Z,92.31
2022-09-26T05:23:04.412Z,92.21
2022-09-26T05:25:57.447Z,92.54
2022-09-26T05:28:25.528Z,93.46
2022-09-26T05:30:54.515Z,93.66
2022-09-26T05:33:22.427Z,93.22
2022-09-26T05:35:53.386Z,93.89
2022-09-26T05:38:20.437Z,94.22
2022-09-26T05:40:56.613Z,94.35
2022-09-26T05:43:27.841Z,93.73
2022-09-26T05:45:58.659Z,93.95
2022-09-26T05:48:29.853Z,93.73
2022-09-26T05:50:56.922Z,93.90
2022-09-26T05:53:25.815Z,93.94
2022-09-26T05:55:53.857Z,94.25
2022-09-26T05:58:34.345Z,94.19
2022-09-26T06:01:30.398Z,93.82
2022-09-26T06:04:05.271Z,94.04
2022-09-26T06:06:42.134Z,94.27
2022-09-26T06:09:12.068Z,94.32
2022-09-26T06:12:10.909Z,93.92
2022-09-26T06:14:37.897Z,94.30
2022-09-26T06:17:04.870Z,94.93
2022-09-26T06:19:32.363Z,95.31
2022-09-26T06:21:59.429Z,95.37
2022-09-26T06:24:26.265Z,94.82
2022-09-26T06:26:57.782Z,95.15
2022-09-26T06:29:25.169Z,94.93
2022-09-26T06:31:52.392Z,94.68
2022-09-26T06:34:25.992Z,94.51
2022-09-26T06:37:19.139Z,93.68
2022-09-26T06:39:46.078Z,94.09
2022-09-26T06:42:13.220Z,93.90
2022-09-26T06:45:10.782Z,93.66
2022-09-26T06:48:05.480Z,93.51
2022-09-26T06:51:00.616Z,93.22
2022-09-26T06:53:31.413Z,92.94
2022-09-26T06:55:59.727Z,92.88
2022-09-26T06:58:27.864Z,93.06
2022-09-26T07:01:00.797Z,92.73
2022-09-26T07:03:48.346Z,92.55
2022-09-26T07:06:44.538Z,93.10
2022-09-26T07:09:12.938Z,93.07
2022-09-26T07:12:13.623Z,92.75
2022-09-26T07:14:39.301Z,92.80
2022-09-26T07:17:17.216Z,93.15
2022-09-26T07:20:16.894Z,93.32
2022-09-26T07:23:11.249Z,93.23
2022-09-26T07:25:40.468Z,93.24
2022-09-26T07:28:09.312Z,93.53
2022-09-26T07:30:49.790Z,93.24
2022-09-26T07:33:28.406Z,93.54
2022-09-26T07:36:01.875Z,93.83
2022-09-26T07:38:31.568Z,93.74
2022-09-26T07:41:00.833Z,93.78
2022-09-26T07:43:54.772Z,93.75
2022-09-26T07:46:34.637Z,93.75
2022-09-26T07:49:20.327Z,94.01
2022-09-26T07:52:07.824Z,94.13
2022-09-26T07:54:57.575Z,94.13
2022-09-26T07:57:43.378Z,93.98
2022-09-26T08:00:21.321Z,94.02
2022-09-26T08:03:01.706Z,93.96
2022-09-26T08:05:31.775Z,93.81
2022-09-26T08:07:58.781Z,93.32
2022-09-26T08:10:45.042Z,93.27
2022-09-26T08:13:33.171Z,93.04
2022-09-26T08:16:29.653Z,92.75
2022-09-26T08:18:59.695Z,92.44
2022-09-26T08:21:26.558Z,91.95
2022-09-26T08:23:56.985Z,91.58
2022-09-26T08:26:44.317Z,91.60
2022-09-26T08:29:16.852Z,91.39
2022-09-26T08:31:46.286Z,90.59
2022-09-26T08:34:13.514Z,90.45
2022-09-26T08:36:41.820Z,90.29
2022-09-26T08:39:24.508Z,90.25
2022-09-26T08:42:35.203Z,90.05
2022-09-26T08:45:48.110Z,89.96
2022-09-26T08:48:52.055Z,89.84
2022-09-26T08:51:34.883Z,89.54
2022-09-26T08:54:12.368Z,89.52
2022-09-26T08:56:43.754Z,90.00
2022-09-26T08:59:35.935Z,89.99
2022-09-26T09:02:10.837Z,89.69
2022-09-26T09:04:57.642Z,89.83
2022-09-26T09:07:26.282Z,90.10
2022-09-26T09:10:00.187Z,89.99
2022-09-26T09:13:01.643Z,90.58
2022-09-26T09:15:56.229Z,89.96
2022-09-26T09:19:08.755Z,89.39
2022-09-26T09:22:23.723Z,89.04
2022-09-26T09:25:31.033Z,88.82
2022-09-26T09:28:13.735Z,88.14
2022-09-26T09:30:50.393Z,88.06
2022-09-26T09:33:58.820Z,87.87
2022-09-26T09:37:10.791Z,87.33
2022-09-26T09:39:57.060Z,86.81
2022-09-26T09:42:43.455Z,86.01
2022-09-26T09:45:45.934Z,85.76
2022-09-26T09:48:13.755Z,84.98
2022-09-26T09:51:04.041Z,84.59
2022-09-26T09:54:05.118Z,84.34
2022-09-26T09:56:36.654Z,83.33
2022-09-26T09:59:15.395Z,82.56
2022-09-26T10:02:19.474Z,81.79
2022-09-26T10:04:50.258Z,79.59
2022-09-26T10:07:17.430Z,78.88
2022-09-26T10:10:02.233Z,79.03
2022-09-26T10:12:50.286Z,78.90
2022-09-26T10:15:38.972Z,78.51
2022-09-26T10:18:25.992Z,78.29
2022-09-26T10:21:09.033Z,78.36
2022-09-26T10:23:39.965Z,78.33
2022-09-26T10:26:13.966Z,77.90
2022-09-26T10:28:44.973Z,77.20
2022-09-26T10:31:23.447Z,73.89
2022-09-26T10:34:26.237Z,73.97
2022-09-26T10:36:54.215Z,73.36
2022-09-26T10:39:48.633Z,71.57
2022-09-26T10:42:20.971Z,71.52
2022-09-26T10:44:51.199Z,70.78
2022-09-26T10:47:26.323Z,70.30
2022-09-26T10:50:17.141Z,70.03
2022-09-26T10:53:08.948Z,69.13
2022-09-26T10:55:47.547Z,68.93
2022-09-26T10:58:19.231Z,68.82
2022-09-26T11:00:50.854Z,68.71
2022-09-26T11:03:24.901Z,68.70
2022-09-26T11:06:34.199Z,66.97
2022-09-26T11:09:08.634Z,66.26
2022-09-26T11:11:56.259Z,66.27
2022-09-26T11:14:32.662Z,65.54
2022-09-26T11:17:09.067Z,65.42
2022-09-26T11:20:02.328Z,65.00
2022-09-26T11:22:40.442Z,63.57
2022-09-26T11:25:14.277Z,63.47
2022-09-26T11:27:46.774Z,63.30
2022-09-26T11:30:22.289Z,63.41
2022-09-26T11:33:00.457Z,62.04
2022-09-26T11:35:33.421Z,62.26
2022-09-26T11:38:39.549Z,61.75
2022-09-26T11:41:13.623Z,62.29
2022-09-26T11:44:05.135Z,60.72
2022-09-26T11:47:07.273Z,59.85
2022-09-26T11:50:04.379Z,59.39
2022-09-26T11:53:04.138Z,59.36
2022-09-26T11:56:02.355Z,58.45
2022-09-26T11:58:53.521Z,58.17
2022-09-26T12:01:23.505Z,58.80
2022-09-26T12:04:02.118Z,56.55
2022-09-26T12:06:55.232Z,57.14
2022-09-26T12:09:47.374Z,58.12
2022-09-26T12:12:29.176Z,58.30
2022-09-26T12:15:02.879Z,58.58
2022-09-26T12:17:49.910Z,59.10
2022-09-26T12:20:47.196Z,59.63
2022-09-26T12:23:22.140Z,59.81
2022-09-26T12:26:17.406Z,60.56
2022-09-26T12:28:54.176Z,61.35
2022-09-26T12:31:45.454Z,61.69
2022-09-26T12:34:21.534Z,61.31
2022-09-26T12:37:26.077Z,61.33
2022-09-26T12:40:15.407Z,61.72
2022-09-26T12:43:01.650Z,61.55
2022-09-26T12:45:55.213Z,61.20
2022-09-26T12:48:39.601Z,61.07
2022-09-26T12:51:12.705Z,61.06
2022-09-26T12:54:02.234Z,60.40
2022-09-26T12:56:39.673Z,60.40
2022-09-26T12:59:41.141Z,59.50
2022-09-26T13:02:08.167Z,59.25
2022-09-26T13:04:59.763Z,59.57
2022-09-26T13:07:51.823Z,58.97
2022-09-26T13:10:28.781Z,58.60
2022-09-26T13:12:58.847Z,58.10
2022-09-26T13:15:39.998Z,57.58
2022-09-26T13:18:35.466Z,56.78
2022-09-26T13:21:07.872Z,56.43
2022-09-26T13:23:41.112Z,56.30
2022-09-26T13:26:30.995Z,55.86
2022-09-26T13:29:18.175Z,55.59
2022-09-26T13:32:06.485Z,55.96
2022-09-26T13:34:40.254Z,55.49
2022-09-26T13:37:19.587Z,55.16
2022-09-26T13:39:52.250Z,54.82
2022-09-26T13:42:27.515Z,54.62
2022-09-26T13:45:41.119Z,55.08
2022-09-26T13:48:29.287Z,55.96
2022-09-26T13:51:25.630Z,56.60
2022-09-26T13:54:03.403Z,57.65
2022-09-26T13:56:34.961Z,57.99
2022-09-26T13:59:11.147Z,58.37
2022-09-26T14:01:42.225Z,57.55
2022-09-26T14:04:37.561Z,57.33
2022-09-26T14:07:35.380Z,57.85
2022-09-26T14:10:02.236Z,58.29
2022-09-26T14:12:54.235Z,58.57
2022-09-26T14:15:24.254Z,59.09
2022-09-26T14:17:51.619Z,59.28
2022-09-26T14:20:27.431Z,58.95
2022-09-26T14:22:56.929Z,58.31
2022-09-26T14:25:45.648Z,58.00
2022-09-26T14:28:33.519Z,58.42
2022-09-26T14:31:24.362Z,58.77
2022-09-26T14:34:11.801Z,59.03
2022-09-26T14:36:39.225Z,59.48
2022-09-26T14:39:06.375Z,59.67
2022-09-26T14:41:36.043Z,59.94
2022-09-26T14:44:16.294Z,60.20
2022-09-26T14:46:43.927Z,60.63
2022-09-26T14:49:28.142Z,61.08
2022-09-26T14:51:59.847Z,61.61
2022-09-26T14:54:37.256Z,61.87
2022-09-26T14:57:08.238Z,62.21
2022-09-26T14:59:35.204Z,62.19
2022-09-26T15:02:17.448Z,62.36
2022-09-26T15:04:53.445Z,62.43
2022-09-26T15:07:27.280Z,62.63
2022-09-26T15:10:05.375Z,62.85
2022-09-26T15:12:44.156Z,63.13
2022-09-26T15:15:39.275Z,63.69
2022-09-26T15:18:17.261Z,63.93
2022-09-26T15:21:00.448Z,64.85
2022-09-26T15:23:44.189Z,65.90
2022-09-26T15:26:11.715Z,67.08
2022-09-26T15:28:38.746Z,67.53
2022-09-26T15:31:38.250Z,68.77
2022-09-26T15:34:16.599Z,69.58
2022-09-26T15:36:48.433Z,70.09
2022-09-26T15:39:30.741Z,71.33
2022-09-26T15:42:29.514Z,71.58
2022-09-26T15:45:01.514Z,72.39
2022-09-26T15:47:34.279Z,73.11
2022-09-26T15:50:15.098Z,73.52
2022-09-26T15:52:52.110Z,73.30
2022-09-26T15:55:23.891Z,73.11
2022-09-26T15:57:52.288Z,73.60
2022-09-26T16:00:19.881Z,73.72
2022-09-26T16:02:48.776Z,74.58
2022-09-26T16:05:16.641Z,75.84
2022-09-26T16:07:49.052Z,75.55
2022-09-26T16:10:42.655Z,75.90
2022-09-26T16:13:25.587Z,75.62
2022-09-26T16:16:18.908Z,75.57
2022-09-26T16:18:55.423Z,75.50
2022-09-26T16:21:26.395Z,75.21
2022-09-26T16:23:57.934Z,74.89
2022-09-26T16:26:40.392Z,74.61
2022-09-26T16:29:08.450Z,74.61
2022-09-26T16:31:44.944Z,74.56
2022-09-26T16:34:26.172Z,74.78
2022-09-26T16:36:53.994Z,74.91
2022-09-26T16:39:25.108Z,75.11
2022-09-26T16:42:02.877Z,75.38
2022-09-26T16:44:36.460Z,75.25
2022-09-26T16:47:25.106Z,75.32
2022-09-26T16:49:52.140Z,74.61
2022-09-26T16:52:22.230Z,74.66
2022-09-26T16:54:51.083Z,74.47
2022-09-26T16:57:30.345Z,74.15
2022-09-26T17:00:21.045Z,73.94
2022-09-26T17:02:48.185Z,73.79
2022-09-26T17:05:20.776Z,73.33
2022-09-26T17:07:49.218Z,73.48
2022-09-26T17:10:18.363Z,73.27
2022-09-26T17:12:51.540Z,73.08
2022-09-26T17:15:30.137Z,73.17
2022-09-26T17:17:58.351Z,73.24
2022-09-26T17:20:26.874Z,73.42
2022-09-26T17:22:54.893Z,73.30
2022-09-26T17:25:25.175Z,73.08
2022-09-26T17:27:58.185Z,73.24
2022-09-26T17:30:25.505Z,73.27
2022-09-26T17:32:54.419Z,73.25
2022-09-26T17:35:31.966Z,73.25
2022-09-26T17:38:00.118Z,73.02
2022-09-26T17:40:30.621Z,73.58
2022-09-26T17:43:00.816Z,73.64
2022-09-26T17:45:30.057Z,73.72
2022-09-26T17:48:10.505Z,73.78
2022-09-26T17:50:39.196Z,73.94
2022-09-26T17:53:09.431Z,73.93
2022-09-26T17:55:36.475Z,73.71
2022-09-26T17:58:09.416Z,73.86
2022-09-26T18:00:43.606Z,73.76
2022-09-26T18:03:19.820Z,73.62
2022-09-26T18:05:47.274Z,73.74
2022-09-26T18:08:22.918Z,73.83
2022-09-26T18:10:56.887Z,73.77
2022-09-26T18:13:27.953Z,73.78
2022-09-26T18:15:58.922Z,74.07
2022-09-26T18:18:28.928Z,74.16
2022-09-26T18:20:57.587Z,74.28
2022-09-26T18:23:34.909Z,74.32
2022-09-26T18:26:03.088Z,74.03
2022-09-26T18:28:30.168Z,73.02
2022-09-26T18:31:00.427Z,73.00
2022-09-26T18:33:29.337Z,73.01
2022-09-26T18:35:57.657Z,72.91
2022-09-26T18:38:24.616Z,72.16
2022-09-26T18:40:55.406Z,72.55
2022-09-26T18:43:25.116Z,72.95
2022-09-26T18:45:52.645Z,73.30
2022-09-26T18:48:25.409Z,73.44
2022-09-26T18:50:53.547Z,74.14
2022-09-26T18:53:23.424Z,74.70
2022-09-26T18:56:08.980Z,75.58
2022-09-26T18:58:36.193Z,75.95
2022-09-26T19:01:07.025Z,77.02
2022-09-26T19:03:41.360Z,77.73
2022-09-26T19:06:16.250Z,78.26
2022-09-26T19:08:45.896Z,79.42
2022-09-26T19:11:19.628Z,81.29
2022-09-26T19:13:49.082Z,81.80
2022-09-26T19:16:17.899Z,82.92
2022-09-26T19:18:45.625Z,84.08
2022-09-26T19:21:20.871Z,85.23
2022-09-26T19:23:49.424Z,86.77
2022-09-26T19:26:35.093Z,87.86
2022-09-26T19:29:07.809Z,88.09
2022-09-26T19:31:38.344Z,88.78
2022-09-26T19:34:06.150Z,89.84
2022-09-26T19:36:33.143Z,90.70
2022-09-26T19:39:00.051Z,91.34
2022-09-26T19:41:27.448Z,92.13
2022-09-26T19:43:54.476Z,92.20
2022-09-26T19:46:29.849Z,92.54
2022-09-26T19:48:57.526Z,92.93
2022-09-26T19:51:25.013Z,93.18
2022-09-26T19:53:52.277Z,93.58
2022-09-26T19:56:19.221Z,93.93
2022-09-26T19:58:46.437Z,94.30
2022-09-26T20:01:21.248Z,94.76
2022-09-26T20:03:49.931Z,94.84
2022-09-26T20:06:23.357Z,95.12
2022-09-26T20:08:55.385Z,95.25
2022-09-26T20:11:24.993Z,95.74
2022-09-26T20:14:10.647Z,95.82
2022-09-26T20:16:42.270Z,96.24
2022-09-26T20:19:16.118Z,96.37
2022-09-26T20:21:43.407Z,96.52
2022-09-26T20:24:16.460Z,96.70
2022-09-26T20:26:43.856Z,96.97
2022-09-26T20:29:14.072Z,97.18
2022-09-26T20:31:43.864Z,97.34
2022-09-26T20:34:11.664Z,97.41
2022-09-26T20:36:42.206Z,97.45
2022-09-26T20:39:16.494Z,97.66
2022-09-26T20:41:44.302Z,97.76
2022-09-26T20:44:13.440Z,97.70
2022-09-26T20:46:48.465Z,97.82
2022-09-26T20:49:21.753Z,97.79
2022-09-26T20:51:50.055Z,97.92
2022-09-26T20:54:28.956Z,97.73
2022-09-26T20:56:56.790Z,97.76
2022-09-26T20:59:24.798Z,98.03
2022-09-26T21:01:54.131Z,98.25
2022-09-26T21:04:30.611Z,98.26
2022-09-26T21:06:58.447Z,98.49
2022-09-26T21:09:26.526Z,98.59
2022-09-26T21:11:53.452Z,98.62
2022-09-26T21:14:20.448Z,98.68
2022-09-26T21:16:53.796Z,98.68
2022-09-26T21:19:23.874Z,98.96
2022-09-26T21:22:01.239Z,99.06
2022-09-26T21:24:42.151Z,99.28
2022-09-26T21:27:15.249Z,99.36
2022-09-26T21:29:43.592Z,99.33
2022-09-26T21:32:20.906Z,99.31
2022-09-26T21:35:03.394Z,99.52
2022-09-26T21:37:32.066Z,99.58
2022-09-26T21:39:59.257Z,99.66
2022-09-26T21:42:26.464Z,99.76
2022-09-26T21:45:01.063Z,99.85
2022-09-26T21:47:29.385Z,99.98
2022-09-26T21:49:56.280Z,100.00
2022-09-26T21:52:31.222Z,100.00
2022-09-26T21:55:00.056Z,100.00
2022-09-26T21:57:30.653Z,100.00
2022-09-26T21:59:58.436Z,100.00
2022-09-26T22:02:26.056Z,100.00
2022-09-26T22:04:53.255Z,100.00
2022-09-26T22:07:21.207Z,100.00
2022-09-26T22:09:48.370Z,100.00
2022-09-26T22:12:15.310Z,100.00
2022-09-26T22:14:42.582Z,100.00
2022-09-26T22:17:09.821Z,100.00
2022-09-26T22:19:36.902Z,100.00
2022-09-26T22:22:03.876Z,100.00
2022-09-26T22:24:32.048Z,100.00
2022-09-26T22:26:59.357Z,100.00
2022-09-26T22:29:27.492Z,100.00
2022-09-26T22:31:55.630Z,100.00
2022-09-26T22:34:22.803Z,100.00
2022-09-26T22:36:50.610Z,100.00
2022-09-26T22:39:17.786Z,100.00
2022-09-26T22:41:44.964Z,100.00
2022-09-26T22:44:12.101Z,100.00
2022-09-26T22:46:39.687Z,100.00
2022-09-26T22:49:07.133Z,100.00
2022-09-26T22:51:34.822Z,100.00
2022-09-26T22:54:02.111Z,100.00
2022-09-26T22:56:29.099Z,100.00
2022-09-26T22:58:56.331Z,100.00
2022-09-26T23:01:27.443Z,100.00
2022-09-26T23:03:55.244Z,100.00
2022-09-26T23:06:23.603Z,100.00
2022-09-26T23:08:51.035Z,100.00
2022-09-26T23:11:19.466Z,100.00
2022-09-26T23:13:47.040Z,100.00
2022-09-26T23:16:17.924Z,100.00
2022-09-26T23:18:45.300Z,100.00
2022-09-26T23:21:20.266Z,100.00
2022-09-26T23:23:50.247Z,100.00
2022-09-26T23:26:35.167Z,100.00
2022-09-26T23:29:02.236Z,100.00
2022-09-26T23:31:29.718Z,100.00
2022-09-26T23:33:57.499Z,100.00
2022-09-26T23:36:25.390Z,100.00
2022-09-26T23:38:53.648Z,100.00
2022-09-26T23:41:20.616Z,100.00
2022-09-26T23:43:48.232Z,100.00
2022-09-26T23:46:15.478Z,100.00
2022-09-26T23:48:43.602Z,100.00
2022-09-26T23:51:11.431Z,100.00
2022-09-26T23:53:38.422Z,100.00
2022-09-26T23:56:09.376Z,100.00
2022-09-26T23:58:39.295Z,100.00
